createdAt,value
2018-12-01T00:02:41.409Z,101957.15
2018-12-01T00:05:44.953Z,101965.32
2018-12-01T00:08:48.582Z,101964.43
2018-12-01T00:11:52.113Z,101957.45
2018-12-01T00:14:55.723Z,101949.24
2018-12-01T00:17:59.297Z,101959.03
2018-12-01T00:21:04.196Z,101963.35
2018-12-01T00:24:07.815Z,101963.97
2018-12-01T00:27:11.401Z,101962.41
2018-12-01T00:30:17.031Z,101959.25
2018-12-01T00:33:20.612Z,101958.74
2018-12-01T00:36:24.103Z,101953.42
2018-12-01T00:39:27.701Z,101956.22
2018-12-01T00:42:31.433Z,101954.77
2018-12-01T00:45:35.050Z,101958.27
2018-12-01T00:48:38.566Z,101959.62
2018-12-01T00:51:42.296Z,101957.99
2018-12-01T00:54:45.994Z,101961.84
2018-12-01T00:57:49.541Z,101965.32
2018-12-01T01:00:53.111Z,101972.13
2018-12-01T01:03:56.748Z,101974.97
2018-12-01T01:07:00.206Z,101980.45
2018-12-01T01:10:04.088Z,101988.43
2018-12-01T01:13:07.704Z,101989.60
2018-12-01T01:16:11.180Z,101989.22
2018-12-01T01:19:14.744Z,101987.44
2018-12-01T01:22:18.457Z,101990.00
2018-12-01T01:25:22.068Z,101992.21
2018-12-01T01:28:25.563Z,101997.37
2018-12-01T01:31:29.146Z,101993.90
2018-12-01T01:34:32.788Z,101997.61
2018-12-01T01:37:36.431Z,101994.12
2018-12-01T01:40:39.981Z,101992.68
2018-12-01T01:43:44.213Z,101993.45
2018-12-01T01:46:47.392Z,101994.74
2018-12-01T01:49:51.160Z,102001.34
2018-12-01T01:52:54.698Z,102001.60
2018-12-01T01:55:58.285Z,102007.83
2018-12-01T01:59:01.880Z,102000.46
2018-12-01T02:02:05.697Z,101997.15
2018-12-01T02:05:09.200Z,101995.26
2018-12-01T02:08:12.738Z,101993.26
2018-12-01T02:11:16.395Z,101997.58
2018-12-01T02:14:19.999Z,101989.23
2018-12-01T02:17:23.557Z,101995.77
2018-12-01T02:20:27.047Z,101992.89
2018-12-01T02:23:30.606Z,101997.03
2018-12-01T02:26:34.159Z,101994.05
2018-12-01T02:29:37.826Z,101995.10
2018-12-01T02:32:41.359Z,102001.87
2018-12-01T02:35:45.049Z,101990.67
2018-12-01T02:38:48.576Z,101991.29
2018-12-01T02:41:53.104Z,101991.83
2018-12-01T02:45:08.371Z,101989.52
2018-12-01T02:48:11.858Z,101993.67
2018-12-01T02:51:15.351Z,101992.23
2018-12-01T02:54:18.895Z,101984.64
2018-12-01T02:57:22.449Z,101994.21
2018-12-01T03:00:26.001Z,101980.89
2018-12-01T03:03:29.657Z,101986.98
2018-12-01T03:06:33.212Z,101979.89
2018-12-01T03:09:37.966Z,101979.39
2018-12-01T03:12:41.607Z,101978.43
2018-12-01T03:15:45.174Z,101971.96
2018-12-01T03:18:48.948Z,101974.52
2018-12-01T03:21:52.532Z,101979.39
2018-12-01T03:24:56.130Z,101979.84
2018-12-01T03:27:59.759Z,101975.90
2018-12-01T03:31:03.406Z,101979.05
2018-12-01T03:34:07.077Z,101985.31
2018-12-01T03:37:10.722Z,101986.20
2018-12-01T03:40:14.696Z,101989.62
2018-12-01T03:43:18.213Z,101985.93
2018-12-01T03:46:21.829Z,101987.80
2018-12-01T03:49:25.384Z,101982.82
2018-12-01T03:52:28.943Z,101986.65
2018-12-01T03:55:33.684Z,101987.90
2018-12-01T03:58:37.477Z,101989.64
2018-12-01T04:01:41.024Z,101993.93
2018-12-01T04:04:44.591Z,101993.27
2018-12-01T04:07:48.082Z,101995.44
2018-12-01T04:10:51.559Z,101999.93
2018-12-01T04:13:55.997Z,102007.17
2018-12-01T04:16:59.486Z,102009.27
2018-12-01T04:20:02.970Z,102002.25
2018-12-01T04:23:06.784Z,102008.21
2018-12-01T04:26:10.350Z,102013.14
2018-12-01T04:29:13.832Z,102007.54
2018-12-01T04:32:17.311Z,102006.00
2018-12-01T04:35:22.801Z,102007.15
2018-12-01T04:38:26.192Z,102004.81
2018-12-01T04:41:29.843Z,102003.72
2018-12-01T04:44:33.365Z,102009.09
2018-12-01T04:47:36.796Z,102012.58
2018-12-01T04:50:40.281Z,102012.68
2018-12-01T04:53:43.759Z,102011.74
2018-12-01T04:56:48.318Z,102016.84
2018-12-01T04:59:51.884Z,102007.55
2018-12-01T05:02:56.504Z,102017.29
2018-12-01T05:06:00.091Z,102022.83
2018-12-01T05:09:04.009Z,102016.36
2018-12-01T05:12:07.557Z,102026.15
2018-12-01T05:15:12.362Z,102016.63
2018-12-01T05:18:15.872Z,102013.76
2018-12-01T05:21:19.418Z,102013.26
2018-12-01T05:24:22.928Z,102018.02
2018-12-01T05:27:26.553Z,102024.94
2018-12-01T05:30:30.192Z,102032.97
2018-12-01T05:33:33.786Z,102036.73
2018-12-01T05:36:37.402Z,102035.67
2018-12-01T05:39:41.034Z,102040.48
2018-12-01T05:42:44.648Z,102043.14
2018-12-01T05:45:48.288Z,102048.61
2018-12-01T05:48:51.729Z,102055.57
2018-12-01T05:51:55.390Z,102061.93
2018-12-01T05:54:58.894Z,102058.27
2018-12-01T05:58:07.414Z,102063.75
2018-12-01T06:01:11.171Z,102063.59
2018-12-01T06:04:14.933Z,102064.36
2018-12-01T06:07:18.396Z,102069.40
2018-12-01T06:10:23.217Z,102074.37
2018-12-01T06:13:26.867Z,102074.39
2018-12-01T06:16:30.426Z,102073.66
2018-12-01T06:19:34.082Z,102077.04
2018-12-01T06:22:37.860Z,102084.47
2018-12-01T06:25:41.494Z,102092.36
2018-12-01T06:28:45.100Z,102093.85
2018-12-01T06:31:48.711Z,102089.13
2018-12-01T06:34:52.201Z,102099.50
2018-12-01T06:37:55.778Z,102097.50
2018-12-01T06:40:59.494Z,102103.76
2018-12-01T06:44:03.301Z,102106.52
2018-12-01T06:47:07.143Z,102105.53
2018-12-01T06:50:13.006Z,102102.04
2018-12-01T06:53:16.668Z,102104.91
2018-12-01T06:56:20.327Z,102097.28
2018-12-01T06:59:23.810Z,102096.42
2018-12-01T07:02:27.473Z,102091.10
2018-12-01T07:05:31.152Z,102090.95
2018-12-01T07:08:34.806Z,102087.49
2018-12-01T07:11:38.576Z,102087.51
2018-12-01T07:14:42.197Z,102085.46
2018-12-01T07:17:45.788Z,102090.72
2018-12-01T07:20:49.382Z,102086.39
2018-12-01T07:23:53.013Z,102088.66
2018-12-01T07:26:56.656Z,102085.68
2018-12-01T07:30:00.190Z,102084.80
2018-12-01T07:33:03.992Z,102100.28
2018-12-01T07:36:07.577Z,102099.08
2018-12-01T07:39:11.175Z,102094.15
2018-12-01T07:42:15.115Z,102094.15
2018-12-01T07:45:18.764Z,102096.24
2018-12-01T07:48:22.404Z,102094.27
2018-12-01T07:51:26.009Z,102092.45
2018-12-01T07:54:29.558Z,102090.64
2018-12-01T07:57:33.213Z,102083.17
2018-12-01T08:00:36.863Z,102079.13
2018-12-01T08:03:40.375Z,102085.74
2018-12-01T08:06:44.012Z,102077.82
2018-12-01T08:09:47.550Z,102073.90
2018-12-01T08:12:51.155Z,102074.39
2018-12-01T08:15:54.680Z,102070.02
2018-12-01T08:18:58.200Z,102061.45
2018-12-01T08:22:01.966Z,102069.57
2018-12-01T08:25:07.390Z,102066.81
2018-12-01T08:28:12.360Z,102058.55
2018-12-01T08:31:16.046Z,102060.70
2018-12-01T08:34:19.664Z,102056.32
2018-12-01T08:37:23.226Z,102056.49
2018-12-01T08:40:28.346Z,102061.42
2018-12-01T08:43:33.050Z,102059.91
2018-12-01T08:46:36.842Z,102058.91
2018-12-01T08:49:40.485Z,102057.14
2018-12-01T08:52:44.573Z,102061.03
2018-12-01T08:55:48.208Z,102055.13
2018-12-01T08:58:51.834Z,102060.33
2018-12-01T09:01:55.338Z,102061.57
2018-12-01T09:04:58.986Z,102061.06
2018-12-01T09:08:02.604Z,102059.72
2018-12-01T09:11:06.247Z,102070.64
2018-12-01T09:14:09.853Z,102072.36
2018-12-01T09:17:13.445Z,102076.98
2018-12-01T09:20:16.978Z,102075.36
2018-12-01T09:23:20.574Z,102077.00
2018-12-01T09:26:24.178Z,102072.57
2018-12-01T09:29:27.592Z,102071.93
2018-12-01T09:32:31.161Z,102070.95
2018-12-01T09:35:34.780Z,102065.84
2018-12-01T09:38:38.407Z,102072.17
2018-12-01T09:41:42.005Z,102078.83
2018-12-01T09:44:46.644Z,102078.06
2018-12-01T09:47:51.248Z,102084.81
2018-12-01T09:50:54.764Z,102081.29
2018-12-01T09:53:58.400Z,102076.87
2018-12-01T09:57:02.899Z,102076.92
2018-12-01T10:00:10.153Z,102077.83
2018-12-01T10:03:13.573Z,102074.12
2018-12-01T10:06:17.083Z,102068.51
2018-12-01T10:09:20.504Z,102065.79
2018-12-01T10:12:24.024Z,102067.62
2018-12-01T10:15:29.808Z,102064.17
2018-12-01T10:18:33.289Z,102067.77
2018-12-01T10:21:36.865Z,102056.60
2018-12-01T10:24:40.407Z,102040.29
2018-12-01T10:27:43.938Z,102044.00
2018-12-01T10:30:47.354Z,102040.83
2018-12-01T10:33:50.931Z,102030.52
2018-12-01T10:36:55.527Z,102028.31
2018-12-01T10:39:59.008Z,102030.31
2018-12-01T10:43:02.552Z,102027.16
2018-12-01T10:46:06.063Z,102013.68
2018-12-01T10:49:09.651Z,102013.30
2018-12-01T10:52:13.848Z,102009.72
2018-12-01T10:55:23.887Z,102010.01
2018-12-01T10:58:27.405Z,102005.52
2018-12-01T11:01:33.763Z,101999.87
2018-12-01T11:04:39.918Z,102001.66
2018-12-01T11:07:43.336Z,102003.60
2018-12-01T11:10:47.334Z,102005.81
2018-12-01T11:13:50.801Z,101998.56
2018-12-01T11:16:54.416Z,101997.81
2018-12-01T11:19:59.081Z,101999.81
2018-12-01T11:23:02.631Z,101995.56
2018-12-01T11:26:06.722Z,101993.33
2018-12-01T11:29:11.095Z,101987.25
2018-12-01T11:32:16.305Z,101993.50
2018-12-01T11:35:19.966Z,101999.01
2018-12-01T11:38:24.525Z,102001.82
2018-12-01T11:41:28.194Z,101991.14
2018-12-01T11:44:32.053Z,101980.14
2018-12-01T11:47:35.892Z,101969.65
2018-12-01T11:50:40.376Z,101961.37
2018-12-01T11:53:44.192Z,101963.19
2018-12-01T11:56:48.034Z,101968.12
2018-12-01T11:59:51.721Z,101970.96
2018-12-01T12:02:56.038Z,101967.35
2018-12-01T12:05:59.581Z,101963.86
2018-12-01T12:09:03.724Z,101961.59
2018-12-01T12:12:07.333Z,101962.67
2018-12-01T12:15:11.838Z,101957.83
2018-12-01T12:18:15.739Z,101955.60
2018-12-01T12:21:21.378Z,101956.44
2018-12-01T12:24:24.915Z,101946.12
2018-12-01T12:27:28.688Z,101941.73
2018-12-01T12:30:34.526Z,101942.01
2018-12-01T12:33:38.192Z,101923.00
2018-12-01T12:36:41.739Z,101908.55
2018-12-01T12:39:45.359Z,101911.55
2018-12-01T12:42:48.969Z,101909.56
2018-12-01T12:45:52.668Z,101906.56
2018-12-01T12:48:56.382Z,101905.62
2018-12-01T12:52:01.021Z,101907.00
2018-12-01T12:55:05.949Z,101902.05
2018-12-01T12:58:09.546Z,101904.12
2018-12-01T13:01:13.358Z,101900.89
2018-12-01T13:04:16.962Z,101897.48
2018-12-01T13:07:21.033Z,101895.14
2018-12-01T13:10:25.544Z,101892.85
2018-12-01T13:13:29.032Z,101895.18
2018-12-01T13:16:32.877Z,101897.03
2018-12-01T13:19:36.434Z,101894.67
2018-12-01T13:22:40.091Z,101893.23
2018-12-01T13:25:44.035Z,101894.42
2018-12-01T13:28:47.708Z,101896.46
2018-12-01T13:31:54.512Z,101904.37
2018-12-01T13:34:55.204Z,101898.04
2018-12-01T13:37:58.768Z,101896.66
2018-12-01T13:41:02.304Z,101884.08
2018-12-01T13:44:05.933Z,101887.56
2018-12-01T13:47:09.430Z,101888.83
2018-12-01T13:50:17.909Z,101889.10
2018-12-01T13:53:21.687Z,101881.44
2018-12-01T13:56:25.144Z,101874.37
2018-12-01T13:59:28.781Z,101875.26
2018-12-01T14:02:32.527Z,101877.11
2018-12-01T14:05:36.125Z,101862.30
2018-12-01T14:08:39.571Z,101859.54
2018-12-01T14:11:43.023Z,101867.93
2018-12-01T14:14:46.800Z,101869.07
2018-12-01T14:17:50.293Z,101865.25
2018-12-01T14:20:53.822Z,101862.42
2018-12-01T14:23:57.300Z,101865.05
2018-12-01T14:27:00.708Z,101865.10
2018-12-01T14:30:04.960Z,101862.37
2018-12-01T14:33:09.385Z,101861.90
2018-12-01T14:36:12.960Z,101854.95
2018-12-01T14:39:16.484Z,101855.91
2018-12-01T14:42:20.179Z,101851.58
2018-12-01T14:45:23.581Z,101852.32
2018-12-01T14:48:27.106Z,101849.23
2018-12-01T14:51:30.629Z,101845.32
2018-12-01T14:54:34.482Z,101843.68
2018-12-01T14:57:38.064Z,101846.35
2018-12-01T15:00:41.680Z,101853.56
2018-12-01T15:03:46.290Z,101851.34
2018-12-01T15:06:49.892Z,101856.84
2018-12-01T15:09:53.491Z,101857.44
2018-12-01T15:12:57.132Z,101848.91
2018-12-01T15:16:01.673Z,101844.58
2018-12-01T15:19:05.585Z,101846.60
2018-12-01T15:22:09.101Z,101844.97
2018-12-01T15:25:14.895Z,101842.70
2018-12-01T15:28:18.550Z,101847.00
2018-12-01T15:31:22.199Z,101846.06
2018-12-01T15:34:25.660Z,101845.22
2018-12-01T15:37:29.253Z,101835.31
2018-12-01T15:40:33.168Z,101831.86
2018-12-01T15:43:36.830Z,101832.59
2018-12-01T15:46:40.344Z,101826.84
2018-12-01T15:49:43.941Z,101826.55
2018-12-01T15:52:50.725Z,101827.51
2018-12-01T15:55:54.383Z,101824.09
2018-12-01T15:58:57.873Z,101826.52
2018-12-01T16:02:01.406Z,101823.76
2018-12-01T16:05:05.606Z,101818.07
2018-12-01T16:08:10.342Z,101810.75
2018-12-01T16:11:13.794Z,101803.51
2018-12-01T16:14:17.456Z,101808.27
2018-12-01T16:17:21.079Z,101806.63
2018-12-01T16:20:24.594Z,101801.88
2018-12-01T16:23:28.045Z,101804.67
2018-12-01T16:26:31.557Z,101809.32
2018-12-01T16:29:35.108Z,101806.90
2018-12-01T16:32:38.683Z,101799.13
2018-12-01T16:35:42.442Z,101801.92
2018-12-01T16:38:46.289Z,101798.07
2018-12-01T16:41:50.259Z,101795.48
2018-12-01T16:44:53.889Z,101788.66
2018-12-01T16:47:57.502Z,101787.11
2018-12-01T16:51:02.121Z,101780.37
2018-12-01T16:54:05.726Z,101780.20
2018-12-01T16:57:09.291Z,101779.98
2018-12-01T17:00:15.329Z,101785.15
2018-12-01T17:03:18.931Z,101774.32
2018-12-01T17:06:22.422Z,101767.61
2018-12-01T17:09:25.974Z,101769.20
2018-12-01T17:12:29.509Z,101761.85
2018-12-01T17:15:33.092Z,101758.92
2018-12-01T17:18:36.809Z,101759.79
2018-12-01T17:21:40.501Z,101753.75
2018-12-01T17:24:43.982Z,101757.17
2018-12-01T17:27:48.640Z,101756.55
2018-12-01T17:30:52.174Z,101755.09
2018-12-01T17:33:56.004Z,101744.59
2018-12-01T17:36:59.706Z,101745.62
2018-12-01T17:40:03.511Z,101734.62
2018-12-01T17:43:09.476Z,101739.98
2018-12-01T17:46:13.088Z,101735.00
2018-12-01T17:49:16.638Z,101734.92
2018-12-01T17:52:20.255Z,101732.11
2018-12-01T17:55:25.227Z,101720.68
2018-12-01T17:58:29.765Z,101718.59
2018-12-01T18:01:33.386Z,101721.25
2018-12-01T18:04:37.049Z,101723.70
2018-12-01T18:07:40.896Z,101728.82
2018-12-01T18:10:45.436Z,101729.07
2018-12-01T18:13:49.141Z,101728.51
2018-12-01T18:16:52.800Z,101722.70
2018-12-01T18:19:56.577Z,101721.35
2018-12-01T18:23:01.420Z,101722.35
2018-12-01T18:26:05.417Z,101722.67
2018-12-01T18:29:09.039Z,101721.65
2018-12-01T18:32:12.634Z,101720.02
2018-12-01T18:35:16.100Z,101715.76
2018-12-01T18:38:19.843Z,101712.41
2018-12-01T18:41:23.487Z,101713.33
2018-12-01T18:44:27.187Z,101716.74
2018-12-01T18:47:30.796Z,101721.51
2018-12-01T18:50:34.434Z,101719.26
2018-12-01T18:53:38.246Z,101706.76
2018-12-01T18:56:41.895Z,101702.92
2018-12-01T18:59:45.362Z,101696.01
2018-12-01T19:02:48.985Z,101696.32
2018-12-01T19:05:52.522Z,101684.34
2018-12-01T19:08:56.161Z,101686.74
2018-12-01T19:11:59.801Z,101681.99
2018-12-01T19:15:03.438Z,101682.87
2018-12-01T19:18:08.913Z,101680.01
2018-12-01T19:21:12.627Z,101678.68
2018-12-01T19:24:16.260Z,101676.82
2018-12-01T19:27:19.994Z,101676.93
2018-12-01T19:30:23.777Z,101672.14
2018-12-01T19:33:27.389Z,101670.15
2018-12-01T19:36:30.910Z,101666.73
2018-12-01T19:39:34.370Z,101662.92
2018-12-01T19:42:39.918Z,101659.49
2018-12-01T19:45:43.714Z,101660.03
2018-12-01T19:48:48.344Z,101654.56
2018-12-01T19:51:51.986Z,101653.25
2018-12-01T19:54:55.589Z,101654.33
2018-12-01T19:57:59.912Z,101652.28
2018-12-01T20:01:03.514Z,101647.74
2018-12-01T20:04:07.597Z,101634.31
2018-12-01T20:07:11.362Z,101630.10
2018-12-01T20:10:18.024Z,101626.96
2018-12-01T20:13:39.945Z,101631.65
2018-12-01T20:16:46.828Z,101632.31
2018-12-01T20:19:50.357Z,101628.10
2018-12-01T20:22:54.209Z,101620.01
2018-12-01T20:25:58.052Z,101617.23
2018-12-01T20:29:01.754Z,101609.75
2018-12-01T20:32:05.727Z,101610.15
2018-12-01T20:35:10.413Z,101606.76
2018-12-01T20:38:20.520Z,101603.02
2018-12-01T20:41:24.141Z,101605.25
2018-12-01T20:44:27.848Z,101597.39
2018-12-01T20:47:31.798Z,101589.83
2018-12-01T20:50:35.429Z,101579.69
2018-12-01T20:53:39.939Z,101576.71
2018-12-01T20:56:43.488Z,101572.09
2018-12-01T20:59:46.972Z,101568.23
2018-12-01T21:02:50.466Z,101568.83
2018-12-01T21:05:54.101Z,101564.80
2018-12-01T21:08:57.539Z,101563.10
2018-12-01T21:12:01.790Z,101557.13
2018-12-01T21:15:08.617Z,101545.96
2018-12-01T21:18:12.143Z,101543.99
2018-12-01T21:21:15.816Z,101539.75
2018-12-01T21:24:19.391Z,101538.83
2018-12-01T21:27:22.869Z,101537.93
2018-12-01T21:30:27.546Z,101542.22
2018-12-01T21:33:32.459Z,101536.47
2018-12-01T21:36:42.651Z,101533.05
2018-12-01T21:39:46.168Z,101528.06
2018-12-01T21:42:49.781Z,101522.72
2018-12-01T21:45:53.384Z,101522.80
2018-12-01T21:48:57.054Z,101522.06
2018-12-01T21:52:01.976Z,101511.93
2018-12-01T21:55:07.305Z,101512.22
2018-12-01T21:58:11.017Z,101506.31
2018-12-01T22:01:14.656Z,101503.93
2018-12-01T22:04:20.024Z,101497.35
2018-12-01T22:07:23.897Z,101486.87
2018-12-01T22:10:27.525Z,101488.04
2018-12-01T22:13:32.150Z,101484.57
2018-12-01T22:16:36.768Z,101484.64
2018-12-01T22:19:40.596Z,101485.90
2018-12-01T22:22:44.248Z,101482.64
2018-12-01T22:25:47.831Z,101477.99
2018-12-01T22:28:52.112Z,101479.73
2018-12-01T22:31:55.711Z,101474.80
2018-12-01T22:34:59.262Z,101473.50
2018-12-01T22:38:02.899Z,101472.80
2018-12-01T22:41:07.059Z,101466.65
2018-12-01T22:44:10.734Z,101466.54
2018-12-01T22:47:14.451Z,101456.18
2018-12-01T22:50:20.107Z,101455.81
2018-12-01T22:53:23.669Z,101451.88
2018-12-01T22:56:28.957Z,101439.32
2018-12-01T22:59:30.870Z,101438.12
2018-12-01T23:02:34.608Z,101440.36
2018-12-01T23:05:38.277Z,101435.16
2018-12-01T23:08:41.924Z,101435.00
2018-12-01T23:11:45.624Z,101430.32
2018-12-01T23:14:49.166Z,101423.67
2018-12-01T23:17:52.678Z,101423.33
2018-12-01T23:20:56.179Z,101415.91
2018-12-01T23:23:59.733Z,101407.03
2018-12-01T23:27:03.344Z,101409.67
2018-12-01T23:30:19.290Z,101407.31
2018-12-01T23:33:24.474Z,101394.94
2018-12-01T23:36:28.035Z,101392.38
2018-12-01T23:39:31.551Z,101390.07
2018-12-01T23:42:35.088Z,101386.54
2018-12-01T23:45:42.096Z,101391.51
2018-12-01T23:48:45.915Z,101386.61
2018-12-01T23:51:49.522Z,101382.69
2018-12-01T23:54:53.047Z,101381.18
2018-12-01T23:57:56.564Z,101381.04
